Terminal Aerodrome Forecast
Issued by NWS

Current Version | Previous Version | Text Only | Print | Product List | Glossary On
Versions: 1 2 3 4 5 6 7 8 9 10 11 12 13 14 15 16 17 18 19 20 21 22 23 24 25 26 27 28
000
FTUS46 KMTR 171727
TAFSFO
TAF
KSFO 171727Z 1718/1824 30005KT P6SM FEW020 FEW080
     FM172000 30009KT P6SM FEW025
     FM180300 VRB04KT P6SM SKC
     FM182200 29006KT P6SM SKC=

USA.gov is the U.S. government's official web portal to all federal, state and local government web resources and services.